sensor_id;sensor_type;location;lat;lon;timestamp;P1;durP1;ratioP1;P2;durP2;ratioP2
67902;SDS011;54708;43.612;1.568;2024-02-26T00:01:48;8.07;;;3.60;;
67902;SDS011;54708;43.612;1.568;2024-02-26T00:04:13;6.68;;;3.80;;
67902;SDS011;54708;43.612;1.568;2024-02-26T00:06:39;6.03;;;3.20;;
67902;SDS011;54708;43.612;1.568;2024-02-26T00:09:08;10.45;;;3.67;;
67902;SDS011;54708;43.612;1.568;2024-02-26T00:11:36;9.82;;;3.95;;
67902;SDS011;54708;43.612;1.568;2024-02-26T00:14:02;6.93;;;3.15;;
67902;SDS011;54708;43.612;1.568;2024-02-26T00:16:28;10.27;;;3.28;;
67902;SDS011;54708;43.612;1.568;2024-02-26T00:18:53;6.57;;;3.13;;
67902;SDS011;54708;43.612;1.568;2024-02-26T00:21:18;9.93;;;3.60;;
67902;SDS011;54708;43.612;1.568;2024-02-26T00:23:44;8.27;;;3.00;;
67902;SDS011;54708;43.612;1.568;2024-02-26T00:26:09;7.88;;;3.45;;
67902;SDS011;54708;43.612;1.568;2024-02-26T00:28:35;6.25;;;3.53;;
67902;SDS011;54708;43.612;1.568;2024-02-26T00:31:01;10.10;;;3.42;;
67902;SDS011;54708;43.612;1.568;2024-02-26T00:33:27;9.35;;;4.05;;
67902;SDS011;54708;43.612;1.568;2024-02-26T00:35:53;8.27;;;3.15;;
67902;SDS011;54708;43.612;1.568;2024-02-26T00:38:18;7.20;;;4.22;;
67902;SDS011;54708;43.612;1.568;2024-02-26T00:40:44;6.93;;;4.28;;
67902;SDS011;54708;43.612;1.568;2024-02-26T00:43:09;8.52;;;3.95;;
67902;SDS011;54708;43.612;1.568;2024-02-26T00:45:34;12.70;;;5.20;;
67902;SDS011;54708;43.612;1.568;2024-02-26T00:48:00;11.80;;;5.03;;
67902;SDS011;54708;43.612;1.568;2024-02-26T00:50:29;10.05;;;4.18;;
67902;SDS011;54708;43.612;1.568;2024-02-26T00:52:55;10.00;;;4.28;;
67902;SDS011;54708;43.612;1.568;2024-02-26T00:55:20;7.75;;;4.63;;
67902;SDS011;54708;43.612;1.568;2024-02-26T00:57:46;7.13;;;4.57;;
67902;SDS011;54708;43.612;1.568;2024-02-26T01:00:11;9.18;;;4.53;;
67902;SDS011;54708;43.612;1.568;2024-02-26T01:02:37;12.38;;;4.80;;
67902;SDS011;54708;43.612;1.568;2024-02-26T01:05:03;8.80;;;5.03;;
67902;SDS011;54708;43.612;1.568;2024-02-26T01:07:31;10.00;;;5.32;;
67902;SDS011;54708;43.612;1.568;2024-02-26T01:10:00;12.73;;;4.55;;
67902;SDS011;54708;43.612;1.568;2024-02-26T01:12:26;13.50;;;5.43;;
67902;SDS011;54708;43.612;1.568;2024-02-26T01:14:51;11.75;;;4.72;;
67902;SDS011;54708;43.612;1.568;2024-02-26T01:17:17;6.65;;;3.40;;
67902;SDS011;54708;43.612;1.568;2024-02-26T01:19:42;13.95;;;4.68;;
67902;SDS011;54708;43.612;1.568;2024-02-26T01:22:08;9.75;;;3.92;;
67902;SDS011;54708;43.612;1.568;2024-02-26T01:24:33;10.70;;;4.75;;
67902;SDS011;54708;43.612;1.568;2024-02-26T01:26:58;8.88;;;4.38;;
67902;SDS011;54708;43.612;1.568;2024-02-26T01:29:24;6.90;;;4.55;;
67902;SDS011;54708;43.612;1.568;2024-02-26T01:31:49;6.63;;;4.03;;
67902;SDS011;54708;43.612;1.568;2024-02-26T01:34:14;17.35;;;5.30;;
67902;SDS011;54708;43.612;1.568;2024-02-26T01:36:40;10.63;;;3.63;;
67902;SDS011;54708;43.612;1.568;2024-02-26T01:39:06;11.05;;;5.22;;
67902;SDS011;54708;43.612;1.568;2024-02-26T01:41:31;11.13;;;4.35;;
67902;SDS011;54708;43.612;1.568;2024-02-26T01:43:56;9.82;;;3.97;;
67902;SDS011;54708;43.612;1.568;2024-02-26T01:46:22;10.77;;;4.28;;
67902;SDS011;54708;43.612;1.568;2024-02-26T01:48:47;10.73;;;4.05;;
67902;SDS011;54708;43.612;1.568;2024-02-26T01:51:14;11.85;;;4.68;;
67902;SDS011;54708;43.612;1.568;2024-02-26T01:53:40;12.48;;;4.65;;
67902;SDS011;54708;43.612;1.568;2024-02-26T01:56:06;12.18;;;3.60;;
67902;SDS011;54708;43.612;1.568;2024-02-26T01:58:32;10.00;;;2.97;;
67902;SDS011;54708;43.612;1.568;2024-02-26T02:00:59;6.43;;;2.92;;
67902;SDS011;54708;43.612;1.568;2024-02-26T02:03:25;11.05;;;3.42;;
67902;SDS011;54708;43.612;1.568;2024-02-26T02:05:51;10.20;;;3.28;;
67902;SDS011;54708;43.612;1.568;2024-02-26T02:08:16;7.75;;;3.35;;
67902;SDS011;54708;43.612;1.568;2024-02-26T02:10:41;8.93;;;3.13;;
67902;SDS011;54708;43.612;1.568;2024-02-26T02:13:07;12.93;;;2.70;;
67902;SDS011;54708;43.612;1.568;2024-02-26T02:15:32;6.13;;;3.03;;
67902;SDS011;54708;43.612;1.568;2024-02-26T02:17:58;14.02;;;5.20;;
67902;SDS011;54708;43.612;1.568;2024-02-26T02:20:24;10.98;;;3.85;;
67902;SDS011;54708;43.612;1.568;2024-02-26T02:22:52;8.90;;;2.85;;
67902;SDS011;54708;43.612;1.568;2024-02-26T02:25:17;14.15;;;3.70;;
67902;SDS011;54708;43.612;1.568;2024-02-26T02:27:43;6.40;;;3.15;;
67902;SDS011;54708;43.612;1.568;2024-02-26T02:30:08;10.88;;;3.10;;
67902;SDS011;54708;43.612;1.568;2024-02-26T02:32:34;6.72;;;3.22;;
67902;SDS011;54708;43.612;1.568;2024-02-26T02:35:02;14.43;;;3.60;;
67902;SDS011;54708;43.612;1.568;2024-02-26T02:37:27;8.57;;;3.30;;
67902;SDS011;54708;43.612;1.568;2024-02-26T02:39:53;10.73;;;2.97;;
67902;SDS011;54708;43.612;1.568;2024-02-26T02:42:19;13.73;;;3.72;;
67902;SDS011;54708;43.612;1.568;2024-02-26T02:44:45;8.35;;;3.28;;
67902;SDS011;54708;43.612;1.568;2024-02-26T02:47:10;11.52;;;3.30;;
67902;SDS011;54708;43.612;1.568;2024-02-26T02:49:36;9.25;;;3.38;;
67902;SDS011;54708;43.612;1.568;2024-02-26T02:52:01;10.98;;;3.30;;
67902;SDS011;54708;43.612;1.568;2024-02-26T02:54:27;9.93;;;2.95;;
67902;SDS011;54708;43.612;1.568;2024-02-26T02:56:52;12.15;;;3.40;;
67902;SDS011;54708;43.612;1.568;2024-02-26T02:59:17;14.48;;;3.08;;
67902;SDS011;54708;43.612;1.568;2024-02-26T03:01:43;13.93;;;3.85;;
67902;SDS011;54708;43.612;1.568;2024-02-26T03:04:08;12.80;;;3.30;;
67902;SDS011;54708;43.612;1.568;2024-02-26T03:06:34;18.90;;;3.45;;
67902;SDS011;54708;43.612;1.568;2024-02-26T03:08:59;14.40;;;4.07;;
67902;SDS011;54708;43.612;1.568;2024-02-26T03:11:25;13.60;;;3.25;;
67902;SDS011;54708;43.612;1.568;2024-02-26T03:13:51;14.55;;;4.13;;
67902;SDS011;54708;43.612;1.568;2024-02-26T03:16:17;13.45;;;2.58;;
67902;SDS011;54708;43.612;1.568;2024-02-26T03:18:42;13.80;;;4.15;;
67902;SDS011;54708;43.612;1.568;2024-02-26T03:21:08;12.20;;;3.45;;
67902;SDS011;54708;43.612;1.568;2024-02-26T03:23:33;9.18;;;2.20;;
67902;SDS011;54708;43.612;1.568;2024-02-26T03:26:02;12.68;;;2.58;;
67902;SDS011;54708;43.612;1.568;2024-02-26T03:28:28;16.45;;;3.15;;
67902;SDS011;54708;43.612;1.568;2024-02-26T03:30:54;7.95;;;2.53;;
67902;SDS011;54708;43.612;1.568;2024-02-26T03:33:19;7.30;;;2.55;;
67902;SDS011;54708;43.612;1.568;2024-02-26T03:35:45;7.68;;;3.08;;
67902;SDS011;54708;43.612;1.568;2024-02-26T03:38:10;5.95;;;2.53;;
67902;SDS011;54708;43.612;1.568;2024-02-26T03:40:35;5.90;;;2.10;;
67902;SDS011;54708;43.612;1.568;2024-02-26T03:43:01;5.63;;;2.85;;
67902;SDS011;54708;43.612;1.568;2024-02-26T03:45:27;9.65;;;2.70;;
67902;SDS011;54708;43.612;1.568;2024-02-26T03:47:53;8.10;;;2.95;;
67902;SDS011;54708;43.612;1.568;2024-02-26T03:50:18;9.95;;;2.35;;
67902;SDS011;54708;43.612;1.568;2024-02-26T03:52:43;5.22;;;2.35;;
67902;SDS011;54708;43.612;1.568;2024-02-26T03:55:09;9.23;;;2.83;;
67902;SDS011;54708;43.612;1.568;2024-02-26T03:57:35;8.57;;;2.97;;
67902;SDS011;54708;43.612;1.568;2024-02-26T04:00:01;9.18;;;2.20;;
67902;SDS011;54708;43.612;1.568;2024-02-26T04:02:26;14.02;;;3.85;;
67902;SDS011;54708;43.612;1.568;2024-02-26T04:04:52;6.63;;;2.60;;
67902;SDS011;54708;43.612;1.568;2024-02-26T04:07:17;12.52;;;2.65;;
67902;SDS011;54708;43.612;1.568;2024-02-26T04:09:42;13.88;;;2.50;;
67902;SDS011;54708;43.612;1.568;2024-02-26T04:12:08;15.73;;;3.03;;
67902;SDS011;54708;43.612;1.568;2024-02-26T04:14:33;10.95;;;2.45;;
67902;SDS011;54708;43.612;1.568;2024-02-26T04:17:00;12.00;;;2.35;;
67902;SDS011;54708;43.612;1.568;2024-02-26T04:19:26;12.18;;;3.10;;
67902;SDS011;54708;43.612;1.568;2024-02-26T04:21:51;5.53;;;2.10;;
67902;SDS011;54708;43.612;1.568;2024-02-26T04:24:16;9.48;;;2.97;;
67902;SDS011;54708;43.612;1.568;2024-02-26T04:26:42;5.32;;;1.92;;
67902;SDS011;54708;43.612;1.568;2024-02-26T04:29:07;9.90;;;3.60;;
67902;SDS011;54708;43.612;1.568;2024-02-26T04:31:32;12.75;;;2.13;;
67902;SDS011;54708;43.612;1.568;2024-02-26T04:33:58;7.85;;;2.67;;
67902;SDS011;54708;43.612;1.568;2024-02-26T04:36:23;5.97;;;1.90;;
67902;SDS011;54708;43.612;1.568;2024-02-26T04:38:50;7.20;;;3.38;;
67902;SDS011;54708;43.612;1.568;2024-02-26T04:41:16;8.23;;;1.80;;
67902;SDS011;54708;43.612;1.568;2024-02-26T04:43:41;5.47;;;1.73;;
67902;SDS011;54708;43.612;1.568;2024-02-26T04:46:10;4.78;;;1.92;;
67902;SDS011;54708;43.612;1.568;2024-02-26T04:48:36;4.88;;;1.73;;
67902;SDS011;54708;43.612;1.568;2024-02-26T04:51:01;7.82;;;1.73;;
67902;SDS011;54708;43.612;1.568;2024-02-26T04:53:27;5.57;;;1.58;;
67902;SDS011;54708;43.612;1.568;2024-02-26T04:55:52;7.60;;;2.85;;
67902;SDS011;54708;43.612;1.568;2024-02-26T04:58:18;5.57;;;1.63;;
67902;SDS011;54708;43.612;1.568;2024-02-26T05:00:43;4.68;;;1.35;;
67902;SDS011;54708;43.612;1.568;2024-02-26T05:03:09;6.60;;;2.50;;
67902;SDS011;54708;43.612;1.568;2024-02-26T05:05:38;4.18;;;1.20;;
67902;SDS011;54708;43.612;1.568;2024-02-26T05:08:03;5.38;;;1.40;;
67902;SDS011;54708;43.612;1.568;2024-02-26T05:10:29;3.22;;;1.40;;
67902;SDS011;54708;43.612;1.568;2024-02-26T05:12:54;6.03;;;1.45;;
67902;SDS011;54708;43.612;1.568;2024-02-26T05:15:20;6.15;;;1.55;;
67902;SDS011;54708;43.612;1.568;2024-02-26T05:17:45;5.35;;;1.60;;
67902;SDS011;54708;43.612;1.568;2024-02-26T05:20:10;4.97;;;1.65;;
67902;SDS011;54708;43.612;1.568;2024-02-26T05:22:36;6.00;;;1.38;;
67902;SDS011;54708;43.612;1.568;2024-02-26T05:25:02;2.40;;;1.55;;
67902;SDS011;54708;43.612;1.568;2024-02-26T05:27:28;5.78;;;1.50;;
67902;SDS011;54708;43.612;1.568;2024-02-26T05:29:53;3.80;;;1.17;;
67902;SDS011;54708;43.612;1.568;2024-02-26T05:32:19;2.88;;;1.70;;
67902;SDS011;54708;43.612;1.568;2024-02-26T05:34:44;2.65;;;1.08;;
67902;SDS011;54708;43.612;1.568;2024-02-26T05:37:10;4.38;;;0.98;;
67902;SDS011;54708;43.612;1.568;2024-02-26T05:39:35;7.85;;;1.58;;
67902;SDS011;54708;43.612;1.568;2024-02-26T05:42:00;3.05;;;1.20;;
67902;SDS011;54708;43.612;1.568;2024-02-26T05:44:26;5.25;;;1.52;;
67902;SDS011;54708;43.612;1.568;2024-02-26T05:46:52;5.93;;;1.15;;
67902;SDS011;54708;43.612;1.568;2024-02-26T05:49:17;2.78;;;1.63;;
67902;SDS011;54708;43.612;1.568;2024-02-26T05:51:43;4.75;;;1.15;;
67902;SDS011;54708;43.612;1.568;2024-02-26T05:54:08;2.75;;;1.00;;
67902;SDS011;54708;43.612;1.568;2024-02-26T05:56:35;5.95;;;1.42;;
67902;SDS011;54708;43.612;1.568;2024-02-26T05:59:00;6.32;;;1.40;;
67902;SDS011;54708;43.612;1.568;2024-02-26T06:01:25;2.25;;;1.58;;
67902;SDS011;54708;43.612;1.568;2024-02-26T06:03:51;2.72;;;0.90;;
67902;SDS011;54708;43.612;1.568;2024-02-26T06:06:16;6.55;;;1.63;;
67902;SDS011;54708;43.612;1.568;2024-02-26T06:08:42;3.47;;;1.50;;
67902;SDS011;54708;43.612;1.568;2024-02-26T06:11:08;3.78;;;1.33;;
67902;SDS011;54708;43.612;1.568;2024-02-26T06:13:34;4.70;;;1.25;;
67902;SDS011;54708;43.612;1.568;2024-02-26T06:15:59;5.80;;;1.67;;
67902;SDS011;54708;43.612;1.568;2024-02-26T06:18:25;5.15;;;2.47;;
67902;SDS011;54708;43.612;1.568;2024-02-26T06:20:50;6.45;;;1.08;;
67902;SDS011;54708;43.612;1.568;2024-02-26T06:23:16;1.65;;;0.98;;
67902;SDS011;54708;43.612;1.568;2024-02-26T06:25:41;7.10;;;1.90;;
67902;SDS011;54708;43.612;1.568;2024-02-26T06:28:07;7.57;;;1.65;;
67902;SDS011;54708;43.612;1.568;2024-02-26T06:30:33;7.63;;;1.67;;
67902;SDS011;54708;43.612;1.568;2024-02-26T06:32:59;4.72;;;1.45;;
67902;SDS011;54708;43.612;1.568;2024-02-26T06:35:24;1.70;;;1.00;;
67902;SDS011;54708;43.612;1.568;2024-02-26T06:37:49;2.28;;;1.00;;
67902;SDS011;54708;43.612;1.568;2024-02-26T06:40:17;7.70;;;1.15;;
67902;SDS011;54708;43.612;1.568;2024-02-26T06:42:43;4.20;;;1.33;;
67902;SDS011;54708;43.612;1.568;2024-02-26T06:45:10;4.28;;;1.40;;
67902;SDS011;54708;43.612;1.568;2024-02-26T06:47:35;1.73;;;1.20;;
67902;SDS011;54708;43.612;1.568;2024-02-26T06:50:00;2.63;;;1.00;;
67902;SDS011;54708;43.612;1.568;2024-02-26T06:52:26;7.38;;;1.02;;
67902;SDS011;54708;43.612;1.568;2024-02-26T06:54:52;3.22;;;1.52;;
67902;SDS011;54708;43.612;1.568;2024-02-26T06:57:20;6.40;;;1.30;;
67902;SDS011;54708;43.612;1.568;2024-02-26T06:59:45;2.03;;;1.38;;
67902;SDS011;54708;43.612;1.568;2024-02-26T07:02:12;5.03;;;1.13;;
67902;SDS011;54708;43.612;1.568;2024-02-26T07:04:38;1.52;;;1.30;;
67902;SDS011;54708;43.612;1.568;2024-02-26T07:07:03;4.78;;;1.02;;
67902;SDS011;54708;43.612;1.568;2024-02-26T07:09:29;1.50;;;0.85;;
67902;SDS011;54708;43.612;1.568;2024-02-26T07:11:54;3.88;;;2.00;;
67902;SDS011;54708;43.612;1.568;2024-02-26T07:14:19;5.18;;;1.10;;
67902;SDS011;54708;43.612;1.568;2024-02-26T07:16:45;2.78;;;0.90;;
67902;SDS011;54708;43.612;1.568;2024-02-26T07:19:10;1.73;;;0.77;;
67902;SDS011;54708;43.612;1.568;2024-02-26T07:21:35;2.38;;;0.90;;
67902;SDS011;54708;43.612;1.568;2024-02-26T07:24:01;4.38;;;1.10;;
67902;SDS011;54708;43.612;1.568;2024-02-26T07:26:27;2.05;;;1.10;;
67902;SDS011;54708;43.612;1.568;2024-02-26T07:28:54;2.17;;;1.15;;
67902;SDS011;54708;43.612;1.568;2024-02-26T07:31:20;2.45;;;1.17;;
67902;SDS011;54708;43.612;1.568;2024-02-26T07:33:45;3.53;;;1.25;;
67902;SDS011;54708;43.612;1.568;2024-02-26T07:36:11;4.18;;;1.45;;
67902;SDS011;54708;43.612;1.568;2024-02-26T07:38:36;2.30;;;0.90;;
67902;SDS011;54708;43.612;1.568;2024-02-26T07:41:02;4.47;;;1.80;;
67902;SDS011;54708;43.612;1.568;2024-02-26T07:43:28;3.53;;;1.33;;
67902;SDS011;54708;43.612;1.568;2024-02-26T07:45:53;3.38;;;1.35;;
67902;SDS011;54708;43.612;1.568;2024-02-26T07:48:18;6.63;;;1.48;;
67902;SDS011;54708;43.612;1.568;2024-02-26T07:50:44;3.72;;;1.00;;
67902;SDS011;54708;43.612;1.568;2024-02-26T07:53:09;1.98;;;1.33;;
67902;SDS011;54708;43.612;1.568;2024-02-26T07:55:35;4.50;;;1.17;;
67902;SDS011;54708;43.612;1.568;2024-02-26T07:58:00;3.80;;;1.80;;
67902;SDS011;54708;43.612;1.568;2024-02-26T08:00:25;3.03;;;1.30;;
67902;SDS011;54708;43.612;1.568;2024-02-26T08:02:51;3.42;;;1.05;;
67902;SDS011;54708;43.612;1.568;2024-02-26T08:05:16;6.75;;;1.85;;
67902;SDS011;54708;43.612;1.568;2024-02-26T08:07:41;2.30;;;1.38;;
67902;SDS011;54708;43.612;1.568;2024-02-26T08:10:07;6.57;;;2.00;;
67902;SDS011;54708;43.612;1.568;2024-02-26T08:12:33;3.97;;;2.33;;
67902;SDS011;54708;43.612;1.568;2024-02-26T08:14:58;5.38;;;1.23;;
67902;SDS011;54708;43.612;1.568;2024-02-26T08:17:24;4.68;;;1.60;;
67902;SDS011;54708;43.612;1.568;2024-02-26T08:19:49;4.38;;;1.75;;
67902;SDS011;54708;43.612;1.568;2024-02-26T08:22:15;13.60;;;1.75;;
67902;SDS011;54708;43.612;1.568;2024-02-26T08:24:44;13.45;;;3.45;;
67902;SDS011;54708;43.612;1.568;2024-02-26T08:27:10;7.32;;;2.20;;
67902;SDS011;54708;43.612;1.568;2024-02-26T08:29:35;3.42;;;1.80;;
67902;SDS011;54708;43.612;1.568;2024-02-26T08:32:00;5.53;;;1.55;;
67902;SDS011;54708;43.612;1.568;2024-02-26T08:34:26;9.80;;;1.92;;
67902;SDS011;54708;43.612;1.568;2024-02-26T08:36:51;3.20;;;1.30;;
67902;SDS011;54708;43.612;1.568;2024-02-26T08:39:17;7.75;;;1.80;;
67902;SDS011;54708;43.612;1.568;2024-02-26T08:41:43;3.85;;;1.48;;
67902;SDS011;54708;43.612;1.568;2024-02-26T08:44:09;6.35;;;1.60;;
67902;SDS011;54708;43.612;1.568;2024-02-26T08:46:34;7.40;;;2.40;;
67902;SDS011;54708;43.612;1.568;2024-02-26T08:49:00;6.93;;;1.60;;
67902;SDS011;54708;43.612;1.568;2024-02-26T08:51:25;5.97;;;1.85;;
67902;SDS011;54708;43.612;1.568;2024-02-26T08:53:50;8.13;;;1.50;;
67902;SDS011;54708;43.612;1.568;2024-02-26T08:56:16;4.50;;;1.67;;
67902;SDS011;54708;43.612;1.568;2024-02-26T08:58:42;8.30;;;1.85;;
67902;SDS011;54708;43.612;1.568;2024-02-26T09:01:08;4.30;;;1.30;;
67902;SDS011;54708;43.612;1.568;2024-02-26T09:03:34;3.53;;;1.63;;
67902;SDS011;54708;43.612;1.568;2024-02-26T09:05:59;9.77;;;2.15;;
67902;SDS011;54708;43.612;1.568;2024-02-26T09:08:25;5.75;;;1.40;;
67902;SDS011;54708;43.612;1.568;2024-02-26T09:10:50;9.27;;;2.85;;
67902;SDS011;54708;43.612;1.568;2024-02-26T09:13:15;5.35;;;2.22;;
67902;SDS011;54708;43.612;1.568;2024-02-26T09:15:41;9.75;;;2.58;;
67902;SDS011;54708;43.612;1.568;2024-02-26T09:18:06;9.32;;;2.03;;
67902;SDS011;54708;43.612;1.568;2024-02-26T09:20:31;6.95;;;2.97;;
67902;SDS011;54708;43.612;1.568;2024-02-26T09:22:57;8.82;;;1.95;;
67902;SDS011;54708;43.612;1.568;2024-02-26T09:25:22;5.47;;;1.10;;
67902;SDS011;54708;43.612;1.568;2024-02-26T09:27:47;7.63;;;2.10;;
67902;SDS011;54708;43.612;1.568;2024-02-26T09:30:13;7.72;;;1.98;;
67902;SDS011;54708;43.612;1.568;2024-02-26T09:32:39;4.00;;;1.35;;
67902;SDS011;54708;43.612;1.568;2024-02-26T09:35:05;13.77;;;2.55;;
67902;SDS011;54708;43.612;1.568;2024-02-26T09:37:31;5.85;;;1.60;;
67902;SDS011;54708;43.612;1.568;2024-02-26T09:39:56;3.03;;;1.85;;
67902;SDS011;54708;43.612;1.568;2024-02-26T09:42:22;2.58;;;1.85;;
67902;SDS011;54708;43.612;1.568;2024-02-26T09:44:51;4.40;;;1.83;;
67902;SDS011;54708;43.612;1.568;2024-02-26T09:47:18;6.38;;;2.75;;
67902;SDS011;54708;43.612;1.568;2024-02-26T09:49:45;3.03;;;1.20;;
67902;SDS011;54708;43.612;1.568;2024-02-26T09:52:11;4.25;;;1.30;;
67902;SDS011;54708;43.612;1.568;2024-02-26T09:54:37;5.15;;;1.77;;
67902;SDS011;54708;43.612;1.568;2024-02-26T09:57:03;2.72;;;1.00;;
67902;SDS011;54708;43.612;1.568;2024-02-26T09:59:37;5.32;;;1.63;;
67902;SDS011;54708;43.612;1.568;2024-02-26T10:02:05;3.25;;;1.33;;
67902;SDS011;54708;43.612;1.568;2024-02-26T10:04:32;4.15;;;1.63;;
67902;SDS011;54708;43.612;1.568;2024-02-26T10:06:57;6.90;;;1.35;;
67902;SDS011;54708;43.612;1.568;2024-02-26T10:09:25;3.72;;;1.13;;
67902;SDS011;54708;43.612;1.568;2024-02-26T10:11:50;6.40;;;1.77;;
67902;SDS011;54708;43.612;1.568;2024-02-26T10:14:15;2.78;;;1.10;;
67902;SDS011;54708;43.612;1.568;2024-02-26T10:16:42;9.77;;;1.75;;
67902;SDS011;54708;43.612;1.568;2024-02-26T10:19:07;3.40;;;1.58;;
67902;SDS011;54708;43.612;1.568;2024-02-26T10:21:33;4.72;;;1.30;;
67902;SDS011;54708;43.612;1.568;2024-02-26T10:23:59;2.83;;;1.63;;
67902;SDS011;54708;43.612;1.568;2024-02-26T10:26:24;3.53;;;1.40;;
67902;SDS011;54708;43.612;1.568;2024-02-26T10:28:49;3.67;;;1.20;;
67902;SDS011;54708;43.612;1.568;2024-02-26T10:31:15;6.80;;;1.15;;
67902;SDS011;54708;43.612;1.568;2024-02-26T10:33:41;3.63;;;1.30;;
67902;SDS011;54708;43.612;1.568;2024-02-26T10:36:07;4.22;;;1.27;;
67902;SDS011;54708;43.612;1.568;2024-02-26T10:38:34;2.78;;;1.60;;
67902;SDS011;54708;43.612;1.568;2024-02-26T10:41:04;3.08;;;1.30;;
67902;SDS011;54708;43.612;1.568;2024-02-26T10:43:31;3.60;;;1.42;;
67902;SDS011;54708;43.612;1.568;2024-02-26T10:45:56;5.15;;;1.33;;
67902;SDS011;54708;43.612;1.568;2024-02-26T10:48:21;2.03;;;1.00;;
67902;SDS011;54708;43.612;1.568;2024-02-26T10:50:47;2.67;;;1.02;;
67902;SDS011;54708;43.612;1.568;2024-02-26T10:53:16;4.85;;;1.10;;
67902;SDS011;54708;43.612;1.568;2024-02-26T10:55:43;2.78;;;1.38;;
67902;SDS011;54708;43.612;1.568;2024-02-26T10:58:10;4.95;;;1.40;;
67902;SDS011;54708;43.612;1.568;2024-02-26T11:00:37;3.13;;;1.35;;
67902;SDS011;54708;43.612;1.568;2024-02-26T11:03:03;4.80;;;1.33;;
67902;SDS011;54708;43.612;1.568;2024-02-26T11:05:30;3.70;;;0.98;;
67902;SDS011;54708;43.612;1.568;2024-02-26T11:07:58;4.07;;;1.60;;
67902;SDS011;54708;43.612;1.568;2024-02-26T11:10:23;3.53;;;1.40;;
67902;SDS011;54708;43.612;1.568;2024-02-26T11:12:50;5.63;;;1.50;;
67902;SDS011;54708;43.612;1.568;2024-02-26T11:15:16;4.25;;;1.27;;
67902;SDS011;54708;43.612;1.568;2024-02-26T11:17:42;4.82;;;1.30;;
67902;SDS011;54708;43.612;1.568;2024-02-26T11:20:09;5.70;;;1.17;;
67902;SDS011;54708;43.612;1.568;2024-02-26T11:22:37;7.63;;;1.20;;
67902;SDS011;54708;43.612;1.568;2024-02-26T11:25:03;3.30;;;1.08;;
67902;SDS011;54708;43.612;1.568;2024-02-26T11:27:30;6.28;;;1.60;;
67902;SDS011;54708;43.612;1.568;2024-02-26T11:29:57;4.03;;;1.38;;
67902;SDS011;54708;43.612;1.568;2024-02-26T11:32:25;2.30;;;1.20;;
67902;SDS011;54708;43.612;1.568;2024-02-26T11:34:51;2.15;;;1.05;;
67902;SDS011;54708;43.612;1.568;2024-02-26T11:37:17;1.80;;;1.10;;
67902;SDS011;54708;43.612;1.568;2024-02-26T11:39:43;3.05;;;1.00;;
67902;SDS011;54708;43.612;1.568;2024-02-26T11:42:10;2.33;;;0.90;;
67902;SDS011;54708;43.612;1.568;2024-02-26T11:44:39;2.55;;;1.20;;
67902;SDS011;54708;43.612;1.568;2024-02-26T11:47:11;5.82;;;1.38;;
67902;SDS011;54708;43.612;1.568;2024-02-26T11:49:37;1.98;;;1.20;;
67902;SDS011;54708;43.612;1.568;2024-02-26T11:52:05;10.38;;;1.90;;
67902;SDS011;54708;43.612;1.568;2024-02-26T11:54:38;2.97;;;1.08;;
67902;SDS011;54708;43.612;1.568;2024-02-26T11:57:04;2.88;;;1.13;;
67902;SDS011;54708;43.612;1.568;2024-02-26T11:59:39;3.92;;;1.80;;
67902;SDS011;54708;43.612;1.568;2024-02-26T12:02:05;2.40;;;0.80;;
67902;SDS011;54708;43.612;1.568;2024-02-26T12:04:32;2.58;;;0.90;;
67902;SDS011;54708;43.612;1.568;2024-02-26T12:07:01;2.47;;;0.60;;
67902;SDS011;54708;43.612;1.568;2024-02-26T12:09:45;3.05;;;0.65;;
67902;SDS011;54708;43.612;1.568;2024-02-26T12:12:13;1.88;;;0.85;;
67902;SDS011;54708;43.612;1.568;2024-02-26T12:14:53;3.10;;;0.90;;
67902;SDS011;54708;43.612;1.568;2024-02-26T12:17:25;3.03;;;1.10;;
67902;SDS011;54708;43.612;1.568;2024-02-26T12:19:51;3.17;;;0.90;;
67902;SDS011;54708;43.612;1.568;2024-02-26T12:22:18;1.88;;;1.70;;
67902;SDS011;54708;43.612;1.568;2024-02-26T12:24:44;2.85;;;0.88;;
67902;SDS011;54708;43.612;1.568;2024-02-26T12:27:09;4.45;;;1.20;;
67902;SDS011;54708;43.612;1.568;2024-02-26T12:29:34;2.00;;;0.95;;
67902;SDS011;54708;43.612;1.568;2024-02-26T12:32:00;2.05;;;0.73;;
67902;SDS011;54708;43.612;1.568;2024-02-26T12:34:26;3.42;;;0.80;;
67902;SDS011;54708;43.612;1.568;2024-02-26T12:36:53;3.33;;;1.08;;
67902;SDS011;54708;43.612;1.568;2024-02-26T12:39:19;2.40;;;1.00;;
67902;SDS011;54708;43.612;1.568;2024-02-26T12:41:45;2.38;;;0.75;;
67902;SDS011;54708;43.612;1.568;2024-02-26T12:44:14;2.42;;;0.70;;
67902;SDS011;54708;43.612;1.568;2024-02-26T12:46:40;1.50;;;0.50;;
67902;SDS011;54708;43.612;1.568;2024-02-26T12:49:06;0.80;;;0.80;;
67902;SDS011;54708;43.612;1.568;2024-02-26T12:51:32;2.40;;;0.65;;
67902;SDS011;54708;43.612;1.568;2024-02-26T12:53:58;1.92;;;0.77;;
67902;SDS011;54708;43.612;1.568;2024-02-26T12:56:23;2.97;;;0.70;;
67902;SDS011;54708;43.612;1.568;2024-02-26T12:58:49;2.90;;;0.60;;
67902;SDS011;54708;43.612;1.568;2024-02-26T13:01:16;1.38;;;0.50;;
67902;SDS011;54708;43.612;1.568;2024-02-26T13:03:43;2.67;;;0.70;;
67902;SDS011;54708;43.612;1.568;2024-02-26T13:06:08;3.08;;;0.90;;
67902;SDS011;54708;43.612;1.568;2024-02-26T13:08:34;4.03;;;0.70;;
67902;SDS011;54708;43.612;1.568;2024-02-26T13:11:00;2.08;;;0.82;;
67902;SDS011;54708;43.612;1.568;2024-02-26T13:13:25;2.50;;;0.80;;
67902;SDS011;54708;43.612;1.568;2024-02-26T13:16:00;1.67;;;1.20;;
67902;SDS011;54708;43.612;1.568;2024-02-26T13:18:30;4.07;;;0.90;;
67902;SDS011;54708;43.612;1.568;2024-02-26T13:21:06;2.22;;;1.00;;
67902;SDS011;54708;43.612;1.568;2024-02-26T13:23:32;4.45;;;1.02;;
67902;SDS011;54708;43.612;1.568;2024-02-26T13:25:57;2.28;;;0.90;;
67902;SDS011;54708;43.612;1.568;2024-02-26T13:28:23;2.40;;;0.82;;
67902;SDS011;54708;43.612;1.568;2024-02-26T13:30:52;3.78;;;1.30;;
67902;SDS011;54708;43.612;1.568;2024-02-26T13:33:21;1.48;;;0.70;;
67902;SDS011;54708;43.612;1.568;2024-02-26T13:35:47;1.20;;;0.63;;
67902;SDS011;54708;43.612;1.568;2024-02-26T13:38:12;0.77;;;0.70;;
67902;SDS011;54708;43.612;1.568;2024-02-26T13:40:38;0.88;;;0.60;;
67902;SDS011;54708;43.612;1.568;2024-02-26T13:43:04;5.18;;;1.08;;
67902;SDS011;54708;43.612;1.568;2024-02-26T13:45:29;0.68;;;0.50;;
67902;SDS011;54708;43.612;1.568;2024-02-26T13:47:59;1.77;;;0.60;;
67902;SDS011;54708;43.612;1.568;2024-02-26T13:50:27;0.60;;;0.60;;
67902;SDS011;54708;43.612;1.568;2024-02-26T13:52:52;1.35;;;0.60;;
67902;SDS011;54708;43.612;1.568;2024-02-26T13:55:19;0.52;;;0.52;;
67902;SDS011;54708;43.612;1.568;2024-02-26T13:57:45;0.82;;;0.57;;
67902;SDS011;54708;43.612;1.568;2024-02-26T14:00:11;3.17;;;0.80;;
67902;SDS011;54708;43.612;1.568;2024-02-26T14:02:38;2.63;;;0.82;;
67902;SDS011;54708;43.612;1.568;2024-02-26T14:05:03;2.30;;;0.70;;
67902;SDS011;54708;43.612;1.568;2024-02-26T14:07:29;1.15;;;0.52;;
67902;SDS011;54708;43.612;1.568;2024-02-26T14:09:57;2.53;;;0.50;;
67902;SDS011;54708;43.612;1.568;2024-02-26T14:12:22;1.33;;;0.50;;
67902;SDS011;54708;43.612;1.568;2024-02-26T14:14:48;0.60;;;0.60;;
67902;SDS011;54708;43.612;1.568;2024-02-26T14:17:13;1.08;;;0.50;;
67902;SDS011;54708;43.612;1.568;2024-02-26T14:19:40;1.10;;;0.73;;
67902;SDS011;54708;43.612;1.568;2024-02-26T14:22:10;1.27;;;0.65;;
67902;SDS011;54708;43.612;1.568;2024-02-26T14:24:36;1.83;;;0.73;;
67902;SDS011;54708;43.612;1.568;2024-02-26T14:27:01;1.70;;;0.52;;
67902;SDS011;54708;43.612;1.568;2024-02-26T14:29:27;2.95;;;0.70;;
67902;SDS011;54708;43.612;1.568;2024-02-26T14:31:53;0.77;;;0.77;;
67902;SDS011;54708;43.612;1.568;2024-02-26T14:34:18;1.10;;;0.60;;
67902;SDS011;54708;43.612;1.568;2024-02-26T14:36:44;1.35;;;0.80;;
67902;SDS011;54708;43.612;1.568;2024-02-26T14:39:09;1.85;;;0.50;;